Time;durP1;ratioP1;P1;durP2;ratioP2;P2;SDS_P1;SDS_P2;PMS_P1;PMS_P2;Temp;Humidity;BMP_temperature;BMP_pressure;BME280_temperature;BME280_humidity;BME280_pressure;Samples;Min_cycle;Max_cycle;Signal;HPM_P1;HPM_P2
2021/03/28 00:01:50;;;;;;;4.40;1.50;;;;;;;6.96;59.28;97428.22;5038671;28;20964;-88
2021/03/28 00:04:18;;;;;;;8.87;2.07;;;;;;;6.93;59.77;97429.91;5040285;28;20423;-87
2021/03/28 00:07:05;;;;;;;9.13;2.07;;;;;;;6.94;59.40;97436.03;5040043;28;20460;-87
2021/03/28 00:09:43;;;;;;;3.30;2.23;;;;;;;6.89;59.72;97437.47;5039245;28;20459;-88
2021/03/28 00:12:22;;;;;;;5.73;2.13;;;;;;;6.89;60.02;97432.09;5039166;28;20435;-87
2021/03/28 00:14:52;;;;;;;4.57;1.83;;;;;;;6.79;59.72;97433.59;5039328;28;20423;-88
2021/03/28 00:17:27;;;;;;;9.90;2.67;;;;;;;6.73;60.31;97434.81;5039095;28;20550;-87
2021/03/28 00:19:56;;;;;;;3.67;2.00;;;;;;;6.63;60.38;97437.00;5038964;28;20490;-88
2021/03/28 00:22:31;;;;;;;5.90;1.90;;;;;;;6.57;61.13;97427.47;5039279;28;20517;-88
2021/03/28 00:25:06;;;;;;;5.80;2.30;;;;;;;6.50;61.58;97431.38;5039232;28;20406;-88
2021/03/28 00:27:42;;;;;;;12.10;3.10;;;;;;;6.44;61.30;97436.72;5046008;28;20483;-87
2021/03/28 00:30:23;;;;;;;14.63;2.77;;;;;;;6.41;61.63;97426.25;5058182;28;20611;-84
2021/03/28 00:32:54;;;;;;;4.50;1.93;;;;;;;6.39;62.04;97428.69;5057806;28;20439;-86
2021/03/28 00:35:24;;;;;;;4.90;2.40;;;;;;;6.36;62.05;97429.63;5046138;28;20425;-87
2021/03/28 00:38:02;;;;;;;5.73;2.40;;;;;;;6.32;62.01;97429.91;5038879;28;20461;-88
2021/03/28 00:40:31;;;;;;;9.73;3.17;;;;;;;6.33;62.46;97422.56;5038534;28;20930;-87
2021/03/28 00:43:12;;;;;;;5.33;2.23;;;;;;;6.30;62.29;97421.59;5037784;28;20406;-87
2021/03/28 00:45:50;;;;;;;9.50;2.93;;;;;;;6.20;62.35;97428.38;5038869;28;20402;-88
2021/03/28 00:48:20;;;;;;;4.30;2.27;;;;;;;6.09;63.29;97425.69;5038410;28;20518;-88
2021/03/28 00:50:50;;;;;;;7.97;2.20;;;;;;;6.07;63.14;97432.75;5038996;28;20459;-88
2021/03/28 00:53:31;;;;;;;11.17;2.43;;;;;;;6.06;63.57;97429.34;5039326;28;20468;-87
2021/03/28 00:56:01;;;;;;;4.80;2.50;;;;;;;6.07;63.50;97419.34;5042363;28;20466;-88
2021/03/28 00:58:41;;;;;;;8.00;2.10;;;;;;;6.10;63.07;97421.81;5041926;28;20443;-88
2021/03/28 01:01:27;;;;;;;3.50;2.00;;;;;;;6.10;63.33;97419.13;5041556;28;20477;-87
2021/03/28 01:04:12;;;;;;;9.57;2.80;;;;;;;6.10;63.11;97413.78;5041912;28;20891;-88
2021/03/28 01:06:45;;;;;;;6.20;3.03;;;;;;;6.07;63.49;97417.41;5041595;28;20459;-88
2021/03/28 01:09:19;;;;;;;9.37;2.60;;;;;;;6.02;63.75;97423.47;5042040;28;20466;-88
2021/03/28 01:12:05;;;;;;;6.80;2.33;;;;;;;6.02;63.62;97409.34;5042147;28;20404;-89
2021/03/28 01:14:42;;;;;;;15.53;2.77;;;;;;;6.02;63.46;97412.75;5046901;28;20450;-87
2021/03/28 01:17:45;;;;;;;7.17;3.87;;;;;;;5.88;64.38;97419.81;5049351;28;20450;-87
2021/03/28 01:20:41;;;;;;;7.10;2.47;;;;;;;5.87;64.68;97409.56;4987075;28;20485;-87
2021/03/28 01:23:13;;;;;;;5.73;2.20;;;;;;;5.87;64.16;97417.59;4980002;28;20472;-87
2021/03/28 01:26:12;;;;;;;3.30;2.03;;;;;;;5.83;64.36;97412.44;5023627;28;20810;-88
2021/03/28 01:28:59;;;;;;;9.87;3.60;;;;;;;5.82;64.32;97415.59;5034246;28;20481;-88
2021/03/28 01:31:30;;;;;;;5.67;1.97;;;;;;;5.78;64.82;97407.81;5040856;28;20462;-88
2021/03/28 01:34:01;;;;;;;8.37;2.87;;;;;;;5.71;64.83;97408.25;5041050;28;20503;-87
2021/03/28 01:36:35;;;;;;;5.57;2.83;;;;;;;5.73;64.91;97408.50;5040066;28;20406;-86
2021/03/28 01:39:09;;;;;;;8.00;2.50;;;;;;;5.72;65.34;97411.66;5039987;28;20469;-86
2021/03/28 01:41:41;;;;;;;8.90;3.40;;;;;;;5.72;64.89;97409.72;5039597;28;20842;-85
2021/03/28 01:44:17;;;;;;;12.53;2.40;;;;;;;5.72;64.89;97414.34;5040373;28;20483;-85
2021/03/28 01:47:00;;;;;;;11.17;2.97;;;;;;;5.71;65.17;97412.88;5040904;28;20431;-85
2021/03/28 01:49:38;;;;;;;8.83;2.83;;;;;;;5.71;65.08;97412.88;5039700;28;20469;-85
2021/03/28 01:52:15;;;;;;;9.20;3.57;;;;;;;5.66;65.12;97408.97;5040220;28;20412;-85
2021/03/28 01:54:58;;;;;;;4.20;2.30;;;;;;;5.64;65.19;97414.06;5039981;28;20424;-86
2021/03/28 01:57:33;;;;;;;9.53;3.10;;;;;;;5.62;65.35;97413.81;5039906;28;20503;-85
2021/03/28 02:00:25;;;;;;;7.43;2.20;;;;;;;5.58;66.26;97415.25;5040111;28;20524;-86
2021/03/28 02:03:02;;;;;;;5.13;2.13;;;;;;;5.52;65.93;97412.56;5039943;28;20821;-86
2021/03/28 02:05:49;;;;;;;7.27;2.83;;;;;;;5.52;66.01;97419.84;5039499;28;20510;-86
2021/03/28 02:08:23;;;;;;;8.50;2.97;;;;;;;5.52;66.35;97415.22;5040040;28;20477;-85
2021/03/28 02:10:57;;;;;;;4.70;2.67;;;;;;;5.59;66.40;97416.72;5039965;28;20451;-86
2021/03/28 02:13:36;;;;;;;7.43;2.90;;;;;;;5.59;66.04;97420.13;5039528;28;20499;-86
2021/03/28 02:16:13;;;;;;;6.67;2.17;;;;;;;5.67;65.59;97421.13;5040059;28;20824;-86
2021/03/28 02:18:48;;;;;;;6.50;2.43;;;;;;;5.68;65.75;97413.84;5040009;28;20875;-86
2021/03/28 02:21:26;;;;;;;8.53;2.40;;;;;;;5.62;65.76;97413.09;5039670;28;20914;-86
2021/03/28 02:23:59;;;;;;;4.33;2.53;;;;;;;5.59;65.98;97414.78;5039895;28;20419;-86
2021/03/28 02:26:36;;;;;;;12.30;3.00;;;;;;;5.54;66.22;97412.81;5039024;28;20916;-86
2021/03/28 02:29:14;;;;;;;3.90;2.70;;;;;;;5.52;66.19;97409.88;5039248;28;20807;-86
2021/03/28 02:31:56;;;;;;;4.33;2.20;;;;;;;5.53;66.54;97410.59;5039094;28;20421;-86
2021/03/28 02:34:30;;;;;;;6.37;2.57;;;;;;;5.54;66.52;97410.16;5039122;28;20912;-86
2021/03/28 02:37:10;;;;;;;9.53;2.43;;;;;;;5.58;66.51;97407.22;5039425;28;20500;-86
2021/03/28 02:39:43;;;;;;;6.20;2.20;;;;;;;5.51;66.78;97410.38;5039644;28;20474;-85
2021/03/28 02:42:17;;;;;;;5.43;2.20;;;;;;;5.45;66.75;97412.28;5039361;28;20891;-86
2021/03/28 02:45:00;;;;;;;7.70;2.40;;;;;;;5.48;67.03;97419.34;5039093;28;20506;-85
2021/03/28 02:48:07;;;;;;;6.87;2.47;;;;;;;5.51;66.59;97410.38;5039061;28;20497;-85
2021/03/28 02:51:13;;;;;;;5.17;1.90;;;;;;;5.56;66.87;97418.41;5028595;28;20463;-85
2021/03/28 02:54:10;;;;;;;4.73;1.80;;;;;;;5.48;67.05;97409.38;5038772;28;20511;-86
2021/03/28 02:56:53;;;;;;;7.97;1.57;;;;;;;5.46;67.38;97417.16;4985522;28;20457;-86
2021/03/28 02:59:35;;;;;;;5.30;1.90;;;;;;;5.46;66.92;97413.72;5038795;28;20570;-86
2021/03/28 03:02:20;;;;;;;7.80;3.00;;;;;;;5.46;67.08;97408.38;5039051;28;20493;-85
2021/03/28 03:05:11;;;;;;;9.60;2.97;;;;;;;5.44;67.34;97416.16;5048781;28;20402;-85
2021/03/28 03:08:01;;;;;;;5.73;1.90;;;;;;;5.48;67.11;97416.69;5041880;28;20405;-85
2021/03/28 03:10:48;;;;;;;5.97;2.33;;;;;;;5.45;66.88;97410.31;5038758;28;20530;-86
2021/03/28 03:13:21;;;;;;;4.50;2.00;;;;;;;5.49;67.08;97415.44;5039052;28;20436;-85
2021/03/28 03:15:52;;;;;;;9.20;2.50;;;;;;;5.51;66.89;97408.44;5038762;28;20488;-86
2021/03/28 03:18:53;;;;;;;10.10;2.37;;;;;;;5.48;66.95;97412.06;5039471;28;20448;-87
2021/03/28 03:21:41;;;;;;;9.07;2.03;;;;;;;5.45;66.77;97409.63;5038750;28;20911;-86
2021/03/28 03:24:31;;;;;;;7.80;2.63;;;;;;;5.40;67.14;97406.41;5038741;28;21012;-86
2021/03/28 03:27:19;;;;;;;8.10;2.47;;;;;;;5.39;66.90;97407.63;5038540;28;20957;-86
2021/03/28 03:30:05;;;;;;;10.97;2.03;;;;;;;5.43;66.80;97412.75;5039161;28;20469;-86
2021/03/28 03:32:54;;;;;;;5.73;2.23;;;;;;;5.42;67.05;97411.28;5038308;28;20813;-86
2021/03/28 03:35:44;;;;;;;7.87;2.37;;;;;;;5.39;67.12;97412.22;5039375;28;20845;-85
2021/03/28 03:38:28;;;;;;;9.00;2.43;;;;;;;5.40;67.09;97419.81;5039153;28;20437;-85
2021/03/28 03:41:29;;;;;;;5.00;2.63;;;;;;;5.39;67.06;97417.59;5038263;28;20487;-85
2021/03/28 03:44:10;;;;;;;6.60;1.87;;;;;;;5.40;66.83;97413.72;5033895;28;20493;-86
2021/03/28 03:47:08;;;;;;;3.53;2.10;;;;;;;5.44;67.14;97410.81;5038803;28;20924;-87
2021/03/28 03:49:55;;;;;;;7.57;2.23;;;;;;;5.44;67.03;97421.50;5038210;28;20442;-86
2021/03/28 03:52:44;;;;;;;13.63;2.43;;;;;;;5.37;67.11;97422.69;5037603;28;20479;-86
2021/03/28 03:55:22;;;;;;;7.93;2.37;;;;;;;5.30;67.38;97423.13;5037885;28;20435;-86
2021/03/28 03:57:53;;;;;;;6.63;2.40;;;;;;;5.30;67.35;97426.53;5037876;28;20514;-86
2021/03/28 04:00:26;;;;;;;7.47;2.40;;;;;;;5.28;67.43;97425.56;5037813;28;20911;-86
2021/03/28 04:03:08;;;;;;;7.20;1.90;;;;;;;5.23;67.71;97427.00;5037905;28;20487;-86
2021/03/28 04:05:59;;;;;;;7.70;2.30;;;;;;;5.21;67.58;97424.06;5037700;28;20431;-86
2021/03/28 04:08:48;;;;;;;5.43;2.17;;;;;;;5.15;67.82;97419.88;5037567;28;20470;-86
2021/03/28 04:11:33;;;;;;;8.87;2.27;;;;;;;5.08;68.05;97426.41;5037421;28;20497;-86
2021/03/28 04:14:12;;;;;;;9.50;2.60;;;;;;;5.14;68.09;97419.16;5037804;28;20422;-86
2021/03/28 04:16:58;;;;;;;11.37;1.93;;;;;;;5.08;68.23;97423.75;5037932;28;20412;-85
2021/03/28 04:19:38;;;;;;;9.50;2.70;;;;;;;5.05;67.86;97419.34;5039350;28;20537;-85
2021/03/28 04:22:27;;;;;;;6.13;2.07;;;;;;;4.99;68.10;97428.53;5037367;28;20765;-86
2021/03/28 04:25:05;;;;;;;3.43;1.77;;;;;;;4.98;68.53;97433.16;5037804;28;20926;-86
2021/03/28 04:28:03;;;;;;;6.93;2.20;;;;;;;4.90;68.67;97434.06;5038532;28;20977;-87
2021/03/28 04:30:50;;;;;;;6.00;2.43;;;;;;;4.92;68.64;97434.34;5041730;28;20546;-86
2021/03/28 04:33:30;;;;;;;6.63;2.10;;;;;;;4.85;68.78;97432.81;5041685;28;20419;-86
2021/03/28 04:36:20;;;;;;;7.63;1.80;;;;;;;4.89;68.92;97432.63;5057140;28;20479;-85
2021/03/28 04:39:01;;;;;;;5.50;2.20;;;;;;;4.85;68.96;97438.88;5062005;28;20405;-85
2021/03/28 04:42:08;;;;;;;4.60;2.00;;;;;;;4.77;69.16;97432.50;5061897;28;20461;-83
2021/03/28 04:45:04;;;;;;;7.47;2.10;;;;;;;4.72;69.88;97432.47;5054749;28;20459;-86
2021/03/28 04:47:52;;;;;;;7.10;2.60;;;;;;;4.81;69.60;97429.63;5042490;28;20466;-86
2021/03/28 04:50:59;;;;;;;11.77;2.70;;;;;;;4.71;69.92;97434.41;5042336;28;20495;-86
2021/03/28 04:54:07;;;;;;;5.40;3.10;;;;;;;4.69;69.87;97428.06;5025440;28;20451;-86
2021/03/28 04:56:54;;;;;;;4.87;1.50;;;;;;;4.75;69.84;97442.97;4993961;28;20439;-86
2021/03/28 04:59:39;;;;;;;6.67;1.93;;;;;;;4.73;69.81;97439.28;5042995;28;20505;-86
2021/03/28 05:02:22;;;;;;;4.90;2.80;;;;;;;4.72;69.88;97443.91;5042696;28;20815;-86
2021/03/28 05:05:21;;;;;;;7.20;1.70;;;;;;;4.70;69.95;97440.22;5042296;28;20453;-86
2021/03/28 05:08:09;;;;;;;7.47;2.07;;;;;;;4.76;70.11;97441.03;4986759;28;20455;-86
2021/03/28 05:11:07;;;;;;;7.97;1.67;;;;;;;4.65;70.64;97436.31;5041683;28;20858;-86
2021/03/28 05:14:13;;;;;;;9.03;2.20;;;;;;;4.64;70.60;97439.44;5038699;28;20446;-86
2021/03/28 05:17:06;;;;;;;9.37;1.77;;;;;;;4.68;70.17;97442.63;5041699;28;20439;-87
2021/03/28 05:19:54;;;;;;;4.40;1.93;;;;;;;4.64;70.35;97447.47;5042649;28;20472;-86
2021/03/28 05:23:08;;;;;;;7.70;2.40;;;;;;;4.68;70.63;97442.63;5042527;28;20432;-86
2021/03/28 05:26:15;;;;;;;6.00;2.40;;;;;;;4.82;69.94;97447.16;5007044;28;20469;-86
2021/03/28 05:29:15;;;;;;;10.70;2.30;;;;;;;4.96;69.41;97443.59;5042393;28;20451;-86
2021/03/28 05:32:17;;;;;;;8.53;2.60;;;;;;;4.97;69.21;97442.41;5041931;28;20420;-87
2021/03/28 05:35:08;;;;;;;9.30;2.30;;;;;;;5.02;68.98;97447.03;5042184;28;20830;-85
2021/03/28 05:38:14;;;;;;;8.53;2.27;;;;;;;5.05;69.27;97448.75;5042164;28;20498;-86
2021/03/28 05:41:05;;;;;;;6.00;2.07;;;;;;;5.11;68.70;97446.13;5041170;28;20468;-86
2021/03/28 05:43:52;;;;;;;5.37;1.90;;;;;;;5.11;68.95;97452.22;5040984;28;20936;-86
2021/03/28 05:46:49;;;;;;;6.03;1.80;;;;;;;5.13;68.65;97451.75;5041690;28;20530;-85
2021/03/28 05:49:43;;;;;;;6.00;2.20;;;;;;;5.16;68.83;97454.19;4985677;28;20531;-85
2021/03/28 05:52:46;;;;;;;5.20;2.20;;;;;;;5.23;68.26;97453.03;5041541;28;20459;-86
2021/03/28 05:55:40;;;;;;;6.30;2.40;;;;;;;5.38;68.34;97459.69;5041266;28;20424;-86
2021/03/28 05:58:37;;;;;;;11.63;3.93;;;;;;;5.67;67.50;97457.91;5041688;28;20409;-86
2021/03/28 06:01:23;;;;;;;12.00;2.73;;;;;;;5.86;65.96;97469.69;5041765;28;20585;-85
2021/03/28 06:04:26;;;;;;;6.80;2.40;;;;;;;5.98;65.69;97471.22;5041073;28;20566;-86
2021/03/28 06:07:42;;;;;;;13.40;2.90;;;;;;;6.18;64.98;97486.38;5040615;28;20447;-85
2021/03/28 06:10:48;;;;;;;6.60;1.97;;;;;;;6.40;65.16;97486.44;5041317;28;20553;-85
2021/03/28 06:13:52;;;;;;;8.30;3.03;;;;;;;7.06;62.92;97487.72;5040538;28;20436;-86
2021/03/28 06:16:39;;;;;;;9.17;3.07;;;;;;;7.24;60.94;97482.59;5009072;28;20535;-86
2021/03/28 06:19:44;;;;;;;9.73;2.60;;;;;;;7.11;61.52;97487.72;5040809;28;20488;-86
2021/03/28 06:22:49;;;;;;;3.87;2.10;;;;;;;7.51;61.06;97479.16;5041004;28;20543;-86
2021/03/28 06:25:40;;;;;;;7.97;2.27;;;;;;;8.29;59.60;97486.97;5040914;28;20457;-85
2021/03/28 06:28:45;;;;;;;10.50;2.17;;;;;;;8.95;56.46;97488.50;5040727;28;20956;-85
2021/03/28 06:31:55;;;;;;;6.50;1.73;;;;;;;9.50;54.95;97502.72;5041244;28;20491;-86
2021/03/28 06:35:08;;;;;;;5.57;1.60;;;;;;;10.00;53.22;97510.28;5041286;28;20455;-86
2021/03/28 06:38:14;;;;;;;8.43;2.70;;;;;;;10.56;51.75;97513.78;5040856;28;20453;-85
2021/03/28 06:40:56;;;;;;;5.97;2.10;;;;;;;10.95;50.79;97521.34;5017489;28;20461;-85
2021/03/28 06:43:56;;;;;;;6.80;2.90;;;;;;;11.45;49.08;97523.25;5040580;28;20494;-85
2021/03/28 06:46:45;;;;;;;3.50;2.03;;;;;;;11.63;49.03;97535.97;5040348;28;20482;-86
2021/03/28 06:49:59;;;;;;;5.43;2.00;;;;;;;12.18;47.18;97536.22;5041206;28;20531;-85
2021/03/28 06:52:53;;;;;;;10.80;2.70;;;;;;;12.49;46.05;97526.50;5020328;28;20430;-84
2021/03/28 06:55:40;;;;;;;6.63;2.40;;;;;;;12.55;45.63;97530.53;5059458;28;20459;-84
2021/03/28 06:58:31;;;;;;;5.90;2.60;;;;;;;12.25;46.91;97535.56;5047054;28;20439;-86
2021/03/28 07:01:26;;;;;;;9.33;2.03;;;;;;;12.13;47.14;97532.38;5039400;28;20519;-85
2021/03/28 07:04:19;;;;;;;6.67;3.27;;;;;;;12.64;45.75;97521.97;5039240;28;20435;-86
2021/03/28 07:06:55;;;;;;;6.43;2.27;;;;;;;12.92;45.28;97534.91;5040268;28;20431;-86
2021/03/28 07:09:43;;;;;;;6.90;2.37;;;;;;;13.11;44.44;97534.75;5040880;28;20834;-85
2021/03/28 07:12:23;;;;;;;7.20;2.73;;;;;;;13.09;44.64;97534.56;5039512;28;20450;-85
2021/03/28 07:15:22;;;;;;;9.67;3.00;;;;;;;12.93;44.63;97522.09;5039368;28;20418;-86
2021/03/28 07:18:24;;;;;;;8.23;2.97;;;;;;;13.03;44.96;97517.69;5038682;28;20534;-85
2021/03/28 07:21:22;;;;;;;7.77;2.47;;;;;;;12.71;45.46;97512.47;5039383;28;20532;-86
2021/03/28 07:24:09;;;;;;;5.30;2.20;;;;;;;12.75;45.11;97521.72;5018401;28;20453;-85
2021/03/28 07:26:57;;;;;;;9.93;2.20;;;;;;;12.45;45.21;97515.97;5039464;28;20438;-86
2021/03/28 07:30:03;;;;;;;6.77;2.40;;;;;;;12.25;45.98;97520.06;5040259;28;20552;-85
2021/03/28 07:33:10;;;;;;;4.57;2.30;;;;;;;12.57;45.90;97521.88;4960319;29;20489;-85
2021/03/28 07:35:56;;;;;;;7.50;1.90;;;;;;;12.67;45.54;97539.88;5045186;28;20430;-85
2021/03/28 07:38:45;;;;;;;10.17;2.87;;;;;;;12.39;46.37;97536.28;5058257;28;20490;-85
2021/03/28 07:41:46;;;;;;;7.60;2.40;;;;;;;12.50;46.27;97538.78;5058422;28;20669;-85
2021/03/28 07:44:38;;;;;;;9.83;2.90;;;;;;;12.65;45.87;97542.41;5057780;28;20450;-85
2021/03/28 07:47:45;;;;;;;10.23;3.20;;;;;;;12.92;45.39;97545.75;5040015;28;20447;-85
2021/03/28 07:50:29;;;;;;;10.50;2.43;;;;;;;13.02;45.97;97551.44;5017116;28;20458;-85
2021/03/28 07:53:27;;;;;;;8.60;2.43;;;;;;;13.18;45.87;97551.09;5039408;28;20440;-86
2021/03/28 07:56:08;;;;;;;13.77;4.57;;;;;;;13.39;45.25;97549.09;5038264;28;20432;-85
2021/03/28 07:58:47;;;;;;;6.23;3.40;;;;;;;13.70;44.63;97558.22;5037449;28;20459;-86
2021/03/28 08:01:47;;;;;;;8.67;2.80;;;;;;;13.81;44.31;97557.91;5039019;28;20581;-85
2021/03/28 08:04:45;;;;;;;9.60;3.23;;;;;;;13.60;44.69;97559.19;5039358;28;20518;-87
2021/03/28 08:07:44;;;;;;;8.50;3.33;;;;;;;13.54;44.73;97567.47;5014215;28;20936;-85
2021/03/28 08:10:36;;;;;;;8.57;3.70;;;;;;;13.27;44.60;97583.16;5023330;28;20486;-86
2021/03/28 08:13:41;;;;;;;6.13;2.30;;;;;;;13.10;44.61;97587.50;5039840;28;20430;-86
2021/03/28 08:16:27;;;;;;;6.37;2.43;;;;;;;12.77;45.07;97584.25;5036552;28;20453;-86
2021/03/28 08:19:15;;;;;;;8.03;2.20;;;;;;;12.59;45.36;97587.78;5039726;28;20947;-86
2021/03/28 08:21:45;;;;;;;8.57;2.90;;;;;;;12.34;45.82;97595.41;5038168;28;20471;-87
2021/03/28 08:24:53;;;;;;;12.73;2.50;;;;;;;12.49;45.59;97597.63;5039014;28;20460;-86
2021/03/28 08:27:44;;;;;;;9.20;2.80;;;;;;;12.51;45.85;97603.22;5038770;28;20455;-86
2021/03/28 08:30:23;;;;;;;8.00;3.37;;;;;;;12.33;46.20;97598.66;5037989;28;20436;-86
2021/03/28 08:33:17;;;;;;;7.03;2.50;;;;;;;12.28;46.57;97604.91;5040174;28;20422;-86
2021/03/28 08:35:53;;;;;;;9.90;2.80;;;;;;;12.31;47.07;97611.97;5039306;28;20443;-86
2021/03/28 08:38:57;;;;;;;5.23;2.13;;;;;;;12.59;46.05;97612.16;5038793;28;20427;-87
2021/03/28 08:41:48;;;;;;;10.90;2.60;;;;;;;12.42;46.23;97611.78;5040058;28;20558;-85
2021/03/28 08:44:49;;;;;;;7.80;2.90;;;;;;;12.35;46.73;97605.00;5038911;28;20917;-86
2021/03/28 08:47:44;;;;;;;5.93;2.70;;;;;;;12.54;46.55;97602.19;5038282;28;20483;-85
2021/03/28 08:50:19;;;;;;;10.13;3.33;;;;;;;12.72;46.48;97611.41;5039267;28;20475;-86
2021/03/28 08:53:22;;;;;;;8.70;3.67;;;;;;;12.85;46.25;97605.97;5038881;28;20441;-85
2021/03/28 08:56:24;;;;;;;6.17;2.30;;;;;;;12.75;46.58;97616.53;5039473;28;20488;-86
2021/03/28 08:58:54;;;;;;;9.17;3.60;;;;;;;12.75;46.55;97611.09;5039184;28;20455;-85
2021/03/28 09:01:31;;;;;;;10.73;2.50;;;;;;;12.75;46.03;97604.94;5040217;28;20507;-84
2021/03/28 09:04:11;;;;;;;4.57;2.53;;;;;;;12.77;46.04;97607.88;5043799;28;20921;-85
2021/03/28 09:06:58;;;;;;;11.23;2.63;;;;;;;12.76;46.01;97601.72;5038728;28;20894;-86
2021/03/28 09:09:57;;;;;;;5.67;2.57;;;;;;;12.85;46.02;97600.56;5039054;28;20446;-86
2021/03/28 09:12:54;;;;;;;6.20;2.03;;;;;;;12.92;45.84;97596.47;5039601;28;20439;-86
2021/03/28 09:15:32;;;;;;;11.80;2.67;;;;;;;12.78;45.87;97593.81;5041690;28;20454;-86
2021/03/28 09:18:13;;;;;;;5.33;2.10;;;;;;;12.81;45.11;97598.16;5047941;28;20470;-88
2021/03/28 09:20:51;;;;;;;6.10;3.03;;;;;;;12.71;45.58;97591.75;5042606;28;20571;-87
2021/03/28 09:23:32;;;;;;;5.40;2.10;;;;;;;12.98;44.05;97586.25;5042890;28;20915;-86
2021/03/28 09:26:01;;;;;;;2.80;1.63;;;;;;;13.00;42.60;97581.75;5042466;28;20510;-86
2021/03/28 09:28:43;;;;;;;2.83;1.90;;;;;;;12.85;41.09;97576.91;5043048;28;20533;-86
2021/03/28 09:31:15;;;;;;;4.60;1.70;;;;;;;12.90;40.71;97576.06;5044213;28;20424;-86
2021/03/28 09:33:53;;;;;;;11.53;2.57;;;;;;;12.98;41.49;97589.69;5043174;28;20405;-87
2021/03/28 09:36:34;;;;;;;5.03;1.63;;;;;;;12.99;41.49;97585.00;5043831;28;20431;-85
2021/03/28 09:39:38;;;;;;;7.77;2.40;;;;;;;13.20;40.44;97583.81;5043813;28;20406;-86
2021/03/28 09:42:34;;;;;;;5.80;1.70;;;;;;;13.37;38.46;97599.69;5044030;28;20565;-87
2021/03/28 09:45:38;;;;;;;4.63;1.93;;;;;;;13.38;37.34;97596.44;5042684;28;20537;-87
2021/03/28 09:48:24;;;;;;;7.20;2.20;;;;;;;13.38;38.89;97598.44;5043221;28;20427;-87
2021/03/28 09:51:03;;;;;;;9.30;3.03;;;;;;;13.25;40.51;97582.25;5043865;28;20463;-86
2021/03/28 09:53:45;;;;;;;3.97;1.70;;;;;;;13.23;38.63;97588.19;5043041;28;20437;-88
2021/03/28 09:56:43;;;;;;;4.80;2.07;;;;;;;13.55;38.37;97582.50;5042796;28;20441;-87
2021/03/28 09:59:52;;;;;;;6.40;1.80;;;;;;;13.73;38.55;97581.56;5042566;28;20479;-87
2021/03/28 10:02:34;;;;;;;4.83;2.07;;;;;;;13.85;38.64;97571.88;5043179;28;20493;-87
2021/03/28 10:05:20;;;;;;;3.93;2.00;;;;;;;13.91;38.35;97567.03;5044210;28;20440;-88
2021/03/28 10:07:53;;;;;;;9.10;1.97;;;;;;;13.97;37.87;97566.88;5043073;28;20520;-86
2021/03/28 10:10:31;;;;;;;3.57;1.97;;;;;;;13.94;38.74;97568.69;5043967;28;20445;-87
2021/03/28 10:13:19;;;;;;;5.17;1.50;;;;;;;13.73;38.69;97557.16;5043676;28;20406;-87
2021/03/28 10:16:00;;;;;;;5.63;2.00;;;;;;;13.56;38.98;97561.53;5043215;28;20478;-86
2021/03/28 10:18:44;;;;;;;4.40;1.93;;;;;;;13.34;39.15;97557.38;5043834;28;20435;-87
2021/03/28 10:21:24;;;;;;;7.17;1.80;;;;;;;13.55;39.03;97565.50;5045271;28;20529;-87
2021/03/28 10:24:03;;;;;;;3.57;1.70;;;;;;;13.53;38.38;97566.03;5043776;28;20431;-87
2021/03/28 10:26:44;;;;;;;5.73;2.13;;;;;;;13.50;39.13;97560.94;5043946;28;20444;-87
2021/03/28 10:29:33;;;;;;;4.83;1.93;;;;;;;13.53;39.02;97560.63;5043362;28;20493;-87
2021/03/28 10:32:12;;;;;;;9.20;1.67;;;;;;;13.72;39.05;97563.81;5042785;28;20428;-86
2021/03/28 10:35:08;;;;;;;4.40;1.30;;;;;;;13.88;38.51;97551.81;5041145;28;20506;-88
2021/03/28 10:37:57;;;;;;;4.83;2.33;;;;;;;13.75;37.50;97554.63;5043134;28;20792;-88
2021/03/28 10:40:34;;;;;;;3.50;1.23;;;;;;;13.49;37.84;97546.66;5047101;28;20550;-85
2021/03/28 10:43:17;;;;;;;7.47;2.63;;;;;;;13.48;38.85;97547.19;5045492;28;20405;-86
2021/03/28 10:46:12;;;;;;;6.53;2.03;;;;;;;13.50;38.18;97542.66;5048495;28;20430;-84
2021/03/28 10:49:15;;;;;;;3.87;1.60;;;;;;;13.51;38.75;97543.41;5044121;28;20479;-85
2021/03/28 10:52:17;;;;;;;3.93;1.43;;;;;;;13.60;38.89;97532.81;5044038;28;20512;-83
2021/03/28 10:55:20;;;;;;;7.03;1.77;;;;;;;13.62;37.89;97535.75;5044734;28;20807;-85
2021/03/28 10:58:36;;;;;;;4.70;1.77;;;;;;;13.77;38.58;97533.13;5041963;28;20462;-84
2021/03/28 11:01:30;;;;;;;5.63;1.60;;;;;;;14.04;37.97;97528.22;5041416;28;20491;-84
2021/03/28 11:04:30;;;;;;;3.80;1.67;;;;;;;14.13;37.45;97532.41;5042767;28;20530;-83
2021/03/28 11:07:33;;;;;;;4.93;2.10;;;;;;;14.32;37.05;97524.72;5041685;28;20865;-83
2021/03/28 11:10:23;;;;;;;6.20;1.90;;;;;;;14.40;36.68;97522.81;5041824;28;20482;-85
2021/03/28 11:13:12;;;;;;;2.30;1.70;;;;;;;14.23;36.46;97520.53;5042341;28;20407;-85
2021/03/28 11:15:47;;;;;;;4.07;1.70;;;;;;;14.25;36.66;97515.28;5042252;28;20491;-86
2021/03/28 11:18:50;;;;;;;3.60;1.87;;;;;;;14.43;35.72;97510.88;5041610;28;20398;-86
2021/03/28 11:21:29;;;;;;;5.90;2.00;;;;;;;14.46;36.18;97499.66;5041576;28;20535;-86
2021/03/28 11:24:22;;;;;;;5.63;1.83;;;;;;;14.43;36.27;97510.88;5040498;28;20901;-87
2021/03/28 11:27:11;;;;;;;5.73;1.77;;;;;;;14.40;36.07;97509.25;5041362;28;20510;-88
2021/03/28 11:30:04;;;;;;;4.17;1.70;;;;;;;14.41;35.83;97514.13;5041506;28;20448;-88
2021/03/28 11:32:54;;;;;;;3.57;2.33;;;;;;;14.47;35.90;97495.66;5040976;28;20893;-88
2021/03/28 11:35:27;;;;;;;3.27;1.63;;;;;;;14.58;36.35;97500.06;5039342;28;20463;-87
2021/03/28 11:38:15;;;;;;;8.33;2.20;;;;;;;14.73;36.60;97496.66;5040595;28;20424;-87
2021/03/28 11:40:42;;;;;;;6.40;2.10;;;;;;;14.92;35.78;97500.50;5041390;28;20486;-88
2021/03/28 11:43:25;;;;;;;8.20;2.47;;;;;;;14.89;35.45;97492.69;5041378;28;20518;-87
2021/03/28 11:46:12;;;;;;;5.47;2.13;;;;;;;14.98;36.63;97495.59;5041455;28;20436;-87
2021/03/28 11:48:42;;;;;;;7.40;2.27;;;;;;;15.01;36.90;97493.78;5041456;28;20458;-88
2021/03/28 11:51:21;;;;;;;4.10;1.80;;;;;;;14.99;37.10;97494.34;5040633;28;20459;-87
2021/03/28 11:53:50;;;;;;;4.53;1.93;;;;;;;14.85;37.22;97482.19;5041162;28;20431;-87
2021/03/28 11:56:42;;;;;;;5.00;2.00;;;;;;;14.85;37.38;97478.72;5041291;28;20470;-86
2021/03/28 11:59:12;;;;;;;3.90;2.20;;;;;;;14.89;36.47;97479.84;5030075;28;20553;-88
2021/03/28 12:02:27;;;;;;;11.20;2.53;;;;;;;14.95;36.86;97476.94;5040200;28;20445;-87
2021/03/28 12:05:26;;;;;;;7.30;2.63;;;;;;;15.14;36.87;97474.59;5042114;28;20911;-88
2021/03/28 12:08:07;;;;;;;4.80;2.17;;;;;;;15.08;37.45;97460.47;5040133;28;20461;-88
2021/03/28 12:10:36;;;;;;;6.93;3.00;;;;;;;15.07;38.00;97456.28;5040903;28;20530;-88
2021/03/28 12:13:30;;;;;;;3.40;1.67;;;;;;;15.18;36.82;97457.94;5041615;28;20462;-88
2021/03/28 12:16:04;;;;;;;4.50;1.80;;;;;;;15.21;36.22;97457.56;5043001;28;20419;-88
2021/03/28 12:18:42;;;;;;;8.93;2.20;;;;;;;15.24;35.76;97447.59;5044343;28;20410;-87
2021/03/28 12:21:31;;;;;;;6.20;1.90;;;;;;;15.28;35.57;97440.53;5042109;28;20505;-93
2021/03/28 12:24:06;;;;;;;6.90;2.30;;;;;;;15.32;35.66;97435.44;5010490;28;20518;-87
2021/03/28 12:26:53;;;;;;;4.20;2.17;;;;;;;15.33;35.70;97438.88;5045353;28;20439;-91
2021/03/28 12:29:40;;;;;;;4.50;1.90;;;;;;;15.43;35.12;97447.94;5043495;28;20509;-90
2021/03/28 12:32:50;;;;;;;6.97;1.90;;;;;;;15.44;34.79;97447.38;5043846;28;20475;-90
2021/03/28 12:35:30;;;;;;;4.33;2.27;;;;;;;15.29;35.96;97446.66;5044477;28;20476;-91
2021/03/28 12:37:58;;;;;;;6.03;2.00;;;;;;;15.39;35.92;97442.88;5041512;28;20494;-89
2021/03/28 12:40:30;;;;;;;5.27;2.20;;;;;;;15.58;35.61;97453.38;5039311;28;20471;-90
2021/03/28 12:42:58;;;;;;;5.70;1.80;;;;;;;15.68;35.51;97457.00;5042347;28;20504;-88
2021/03/28 12:45:46;;;;;;;10.70;2.20;;;;;;;15.76;35.51;97452.25;5041750;28;20455;-90
2021/03/28 12:48:35;;;;;;;7.47;2.17;;;;;;;15.76;35.84;97437.91;5036439;28;20459;-87
2021/03/28 12:51:18;;;;;;;6.10;2.30;;;;;;;15.74;35.54;97432.31;5045588;28;20473;-89
2021/03/28 12:53:44;;;;;;;7.07;3.10;;;;;;;15.73;34.68;97430.84;5047133;28;20482;-89
2021/03/28 12:56:23;;;;;;;3.77;1.83;;;;;;;15.76;34.75;97427.75;5046341;28;20573;-90
2021/03/28 12:58:54;;;;;;;7.10;2.03;;;;;;;15.78;35.15;97422.50;5047351;28;20455;-88
2021/03/28 13:01:31;;;;;;;4.33;1.90;;;;;;;15.97;35.39;97417.38;5045099;28;20481;-87
2021/03/28 13:04:15;;;;;;;4.33;1.93;;;;;;;15.94;34.74;97426.59;5045007;28;20919;-86
2021/03/28 13:06:46;;;;;;;5.03;2.13;;;;;;;16.05;34.59;97414.59;5045125;28;20495;-90
2021/03/28 13:09:27;;;;;;;8.93;2.50;;;;;;;16.02;34.47;97407.53;5046463;28;20463;-87